sensor_id;sensor_type;location;lat;lon;timestamp;P1;durP1;ratioP1;P2;durP2;ratioP2
18290;SDS011;9271;48.590;8.866;2023-02-02T00:02:08;3.87;;;1.73;;
18290;SDS011;9271;48.590;8.866;2023-02-02T00:04:35;4.80;;;1.93;;
18290;SDS011;9271;48.590;8.866;2023-02-02T00:07:02;3.50;;;1.70;;
18290;SDS011;9271;48.590;8.866;2023-02-02T00:09:31;5.00;;;1.70;;
18290;SDS011;9271;48.590;8.866;2023-02-02T00:11:58;6.00;;;1.97;;
18290;SDS011;9271;48.590;8.866;2023-02-02T00:14:27;4.83;;;2.17;;
18290;SDS011;9271;48.590;8.866;2023-02-02T00:16:54;4.23;;;1.77;;
18290;SDS011;9271;48.590;8.866;2023-02-02T00:19:22;3.37;;;1.90;;
18290;SDS011;9271;48.590;8.866;2023-02-02T00:21:50;3.40;;;1.60;;
18290;SDS011;9271;48.590;8.866;2023-02-02T00:24:18;3.23;;;1.70;;
18290;SDS011;9271;48.590;8.866;2023-02-02T00:26:46;1.87;;;1.50;;
18290;SDS011;9271;48.590;8.866;2023-02-02T00:29:15;4.03;;;1.23;;
18290;SDS011;9271;48.590;8.866;2023-02-02T00:31:44;3.10;;;1.50;;
18290;SDS011;9271;48.590;8.866;2023-02-02T00:34:11;2.87;;;1.27;;
18290;SDS011;9271;48.590;8.866;2023-02-02T00:36:38;2.73;;;1.20;;
18290;SDS011;9271;48.590;8.866;2023-02-02T00:39:05;4.27;;;1.30;;
18290;SDS011;9271;48.590;8.866;2023-02-02T00:41:32;2.53;;;1.60;;
18290;SDS011;9271;48.590;8.866;2023-02-02T00:43:58;2.57;;;1.37;;
18290;SDS011;9271;48.590;8.866;2023-02-02T00:46:44;4.33;;;1.30;;
18290;SDS011;9271;48.590;8.866;2023-02-02T00:49:10;3.90;;;1.40;;
18290;SDS011;9271;48.590;8.866;2023-02-02T00:51:37;2.33;;;1.40;;
18290;SDS011;9271;48.590;8.866;2023-02-02T00:54:04;2.83;;;1.53;;
18290;SDS011;9271;48.590;8.866;2023-02-02T00:56:31;3.83;;;1.60;;
18290;SDS011;9271;48.590;8.866;2023-02-02T00:58:57;3.93;;;1.77;;
18290;SDS011;9271;48.590;8.866;2023-02-02T01:01:24;4.20;;;1.87;;
18290;SDS011;9271;48.590;8.866;2023-02-02T01:03:53;2.57;;;1.10;;
18290;SDS011;9271;48.590;8.866;2023-02-02T01:06:19;2.20;;;1.20;;
18290;SDS011;9271;48.590;8.866;2023-02-02T01:08:46;2.20;;;1.20;;
18290;SDS011;9271;48.590;8.866;2023-02-02T01:11:13;2.67;;;1.23;;
18290;SDS011;9271;48.590;8.866;2023-02-02T01:13:40;1.83;;;1.20;;
18290;SDS011;9271;48.590;8.866;2023-02-02T01:16:07;2.53;;;1.23;;
18290;SDS011;9271;48.590;8.866;2023-02-02T01:18:35;2.97;;;1.30;;
18290;SDS011;9271;48.590;8.866;2023-02-02T01:21:04;2.67;;;1.43;;
18290;SDS011;9271;48.590;8.866;2023-02-02T01:23:32;3.50;;;1.30;;
18290;SDS011;9271;48.590;8.866;2023-02-02T01:26:01;3.17;;;1.40;;
18290;SDS011;9271;48.590;8.866;2023-02-02T01:28:29;3.13;;;1.20;;
18290;SDS011;9271;48.590;8.866;2023-02-02T01:30:56;3.03;;;1.40;;
18290;SDS011;9271;48.590;8.866;2023-02-02T01:33:23;1.87;;;1.20;;
18290;SDS011;9271;48.590;8.866;2023-02-02T01:35:51;2.30;;;1.03;;
18290;SDS011;9271;48.590;8.866;2023-02-02T01:38:21;4.33;;;1.43;;
18290;SDS011;9271;48.590;8.866;2023-02-02T01:40:49;7.27;;;1.80;;
18290;SDS011;9271;48.590;8.866;2023-02-02T01:43:19;2.30;;;1.10;;
18290;SDS011;9271;48.590;8.866;2023-02-02T01:45:48;5.20;;;1.20;;
18290;SDS011;9271;48.590;8.866;2023-02-02T01:48:15;2.50;;;1.20;;
18290;SDS011;9271;48.590;8.866;2023-02-02T01:50:43;3.03;;;1.30;;
18290;SDS011;9271;48.590;8.866;2023-02-02T01:53:10;2.13;;;1.10;;
18290;SDS011;9271;48.590;8.866;2023-02-02T01:55:38;1.70;;;1.20;;
18290;SDS011;9271;48.590;8.866;2023-02-02T01:58:07;3.77;;;1.37;;
18290;SDS011;9271;48.590;8.866;2023-02-02T02:00:36;5.80;;;1.70;;
18290;SDS011;9271;48.590;8.866;2023-02-02T02:03:05;3.90;;;1.57;;
18290;SDS011;9271;48.590;8.866;2023-02-02T02:05:35;3.93;;;1.20;;
18290;SDS011;9271;48.590;8.866;2023-02-02T02:08:07;1.80;;;1.13;;
18290;SDS011;9271;48.590;8.866;2023-02-02T02:10:39;2.57;;;1.50;;
18290;SDS011;9271;48.590;8.866;2023-02-02T02:13:06;3.23;;;1.50;;
18290;SDS011;9271;48.590;8.866;2023-02-02T02:15:34;3.43;;;1.73;;
18290;SDS011;9271;48.590;8.866;2023-02-02T02:18:43;2.53;;;1.40;;
18290;SDS011;9271;48.590;8.866;2023-02-02T02:21:28;2.57;;;1.33;;
18290;SDS011;9271;48.590;8.866;2023-02-02T02:24:35;4.40;;;1.30;;
18290;SDS011;9271;48.590;8.866;2023-02-02T02:30:47;5.00;;;1.30;;
18290;SDS011;9271;48.590;8.866;2023-02-02T02:33:29;4.13;;;1.07;;
18290;SDS011;9271;48.590;8.866;2023-02-02T02:36:07;1.43;;;1.10;;
18290;SDS011;9271;48.590;8.866;2023-02-02T02:38:42;2.87;;;1.27;;
18290;SDS011;9271;48.590;8.866;2023-02-02T02:41:15;2.90;;;1.27;;
18290;SDS011;9271;48.590;8.866;2023-02-02T02:43:48;2.00;;;1.30;;
18290;SDS011;9271;48.590;8.866;2023-02-02T02:46:19;4.20;;;1.27;;
18290;SDS011;9271;48.590;8.866;2023-02-02T02:48:49;4.57;;;1.63;;
18290;SDS011;9271;48.590;8.866;2023-02-02T02:54:07;2.33;;;1.13;;
18290;SDS011;9271;48.590;8.866;2023-02-02T02:56:36;1.90;;;1.00;;
18290;SDS011;9271;48.590;8.866;2023-02-02T02:59:09;2.03;;;1.03;;
18290;SDS011;9271;48.590;8.866;2023-02-02T03:01:45;2.50;;;1.10;;
18290;SDS011;9271;48.590;8.866;2023-02-02T03:04:24;3.70;;;1.50;;
18290;SDS011;9271;48.590;8.866;2023-02-02T03:06:59;4.53;;;1.40;;
18290;SDS011;9271;48.590;8.866;2023-02-02T03:09:30;2.30;;;1.00;;
18290;SDS011;9271;48.590;8.866;2023-02-02T03:12:01;2.37;;;1.00;;
18290;SDS011;9271;48.590;8.866;2023-02-02T03:14:28;2.97;;;1.00;;
18290;SDS011;9271;48.590;8.866;2023-02-02T03:16:59;3.53;;;0.90;;
18290;SDS011;9271;48.590;8.866;2023-02-02T03:19:27;2.90;;;1.37;;
18290;SDS011;9271;48.590;8.866;2023-02-02T03:21:53;2.97;;;1.57;;
18290;SDS011;9271;48.590;8.866;2023-02-02T03:24:20;2.27;;;1.33;;
18290;SDS011;9271;48.590;8.866;2023-02-02T03:26:47;2.53;;;1.40;;
18290;SDS011;9271;48.590;8.866;2023-02-02T03:29:13;2.33;;;1.30;;
18290;SDS011;9271;48.590;8.866;2023-02-02T03:31:41;3.00;;;1.40;;
18290;SDS011;9271;48.590;8.866;2023-02-02T03:34:08;2.83;;;1.93;;
18290;SDS011;9271;48.590;8.866;2023-02-02T03:36:36;1.73;;;1.10;;
18290;SDS011;9271;48.590;8.866;2023-02-02T03:39:02;2.53;;;1.50;;
18290;SDS011;9271;48.590;8.866;2023-02-02T03:41:29;2.97;;;1.40;;
18290;SDS011;9271;48.590;8.866;2023-02-02T03:43:56;2.07;;;1.20;;
18290;SDS011;9271;48.590;8.866;2023-02-02T03:46:22;4.23;;;1.50;;
18290;SDS011;9271;48.590;8.866;2023-02-02T03:48:49;2.13;;;1.20;;
18290;SDS011;9271;48.590;8.866;2023-02-02T03:51:15;1.80;;;1.03;;
18290;SDS011;9271;48.590;8.866;2023-02-02T03:53:43;3.57;;;1.50;;
18290;SDS011;9271;48.590;8.866;2023-02-02T03:56:11;2.27;;;1.30;;
18290;SDS011;9271;48.590;8.866;2023-02-02T03:58:38;3.20;;;1.03;;
18290;SDS011;9271;48.590;8.866;2023-02-02T04:01:06;4.93;;;1.30;;
18290;SDS011;9271;48.590;8.866;2023-02-02T04:03:35;2.27;;;1.10;;
18290;SDS011;9271;48.590;8.866;2023-02-02T04:06:02;2.80;;;1.30;;
18290;SDS011;9271;48.590;8.866;2023-02-02T04:08:29;1.30;;;1.10;;
18290;SDS011;9271;48.590;8.866;2023-02-02T04:10:57;2.10;;;1.20;;
18290;SDS011;9271;48.590;8.866;2023-02-02T04:13:24;2.47;;;1.30;;
18290;SDS011;9271;48.590;8.866;2023-02-02T04:15:55;3.17;;;1.20;;
18290;SDS011;9271;48.590;8.866;2023-02-02T04:18:22;1.33;;;0.97;;
18290;SDS011;9271;48.590;8.866;2023-02-02T04:20:49;2.90;;;1.20;;
18290;SDS011;9271;48.590;8.866;2023-02-02T04:23:20;2.27;;;1.10;;
18290;SDS011;9271;48.590;8.866;2023-02-02T04:25:47;3.30;;;1.20;;
18290;SDS011;9271;48.590;8.866;2023-02-02T04:28:15;3.60;;;1.20;;
18290;SDS011;9271;48.590;8.866;2023-02-02T04:30:42;2.50;;;1.70;;
18290;SDS011;9271;48.590;8.866;2023-02-02T04:33:09;2.70;;;1.30;;
18290;SDS011;9271;48.590;8.866;2023-02-02T04:35:35;2.03;;;1.20;;
18290;SDS011;9271;48.590;8.866;2023-02-02T04:38:02;3.07;;;1.30;;
18290;SDS011;9271;48.590;8.866;2023-02-02T04:40:29;2.33;;;1.60;;
18290;SDS011;9271;48.590;8.866;2023-02-02T04:42:56;1.10;;;1.00;;
18290;SDS011;9271;48.590;8.866;2023-02-02T04:45:24;1.57;;;1.10;;
18290;SDS011;9271;48.590;8.866;2023-02-02T04:47:50;2.83;;;1.30;;
18290;SDS011;9271;48.590;8.866;2023-02-02T04:50:17;2.47;;;1.13;;
18290;SDS011;9271;48.590;8.866;2023-02-02T04:52:44;1.47;;;1.00;;
18290;SDS011;9271;48.590;8.866;2023-02-02T04:55:10;1.57;;;1.10;;
18290;SDS011;9271;48.590;8.866;2023-02-02T04:57:37;2.40;;;1.17;;
18290;SDS011;9271;48.590;8.866;2023-02-02T05:00:04;4.47;;;1.20;;
18290;SDS011;9271;48.590;8.866;2023-02-02T05:02:35;1.43;;;1.10;;
18290;SDS011;9271;48.590;8.866;2023-02-02T05:05:02;2.03;;;1.10;;
18290;SDS011;9271;48.590;8.866;2023-02-02T05:07:29;2.03;;;1.03;;
18290;SDS011;9271;48.590;8.866;2023-02-02T05:09:56;1.80;;;0.90;;
18290;SDS011;9271;48.590;8.866;2023-02-02T05:12:22;1.83;;;1.20;;
18290;SDS011;9271;48.590;8.866;2023-02-02T05:14:49;1.27;;;0.93;;
18290;SDS011;9271;48.590;8.866;2023-02-02T05:17:15;1.33;;;0.93;;
18290;SDS011;9271;48.590;8.866;2023-02-02T05:19:43;1.47;;;1.10;;
18290;SDS011;9271;48.590;8.866;2023-02-02T05:22:10;2.17;;;1.13;;
18290;SDS011;9271;48.590;8.866;2023-02-02T05:24:37;3.43;;;1.20;;
18290;SDS011;9271;48.590;8.866;2023-02-02T05:27:03;3.83;;;1.20;;
18290;SDS011;9271;48.590;8.866;2023-02-02T05:29:30;1.03;;;0.97;;
18290;SDS011;9271;48.590;8.866;2023-02-02T05:31:57;1.13;;;1.03;;
18290;SDS011;9271;48.590;8.866;2023-02-02T05:34:23;1.83;;;1.03;;
18290;SDS011;9271;48.590;8.866;2023-02-02T05:36:51;1.30;;;1.10;;
18290;SDS011;9271;48.590;8.866;2023-02-02T05:39:18;2.20;;;1.13;;
18290;SDS011;9271;48.590;8.866;2023-02-02T05:41:45;2.73;;;1.13;;
18290;SDS011;9271;48.590;8.866;2023-02-02T05:44:12;2.77;;;1.03;;
18290;SDS011;9271;48.590;8.866;2023-02-02T05:46:39;1.43;;;0.97;;
18290;SDS011;9271;48.590;8.866;2023-02-02T05:49:06;6.47;;;1.60;;
18290;SDS011;9271;48.590;8.866;2023-02-02T05:51:38;1.93;;;1.23;;
18290;SDS011;9271;48.590;8.866;2023-02-02T05:54:09;1.87;;;1.10;;
18290;SDS011;9271;48.590;8.866;2023-02-02T05:56:37;3.30;;;1.23;;
18290;SDS011;9271;48.590;8.866;2023-02-02T05:59:03;1.63;;;1.20;;
18290;SDS011;9271;48.590;8.866;2023-02-02T06:01:31;1.73;;;1.20;;
18290;SDS011;9271;48.590;8.866;2023-02-02T06:03:58;2.63;;;1.60;;
18290;SDS011;9271;48.590;8.866;2023-02-02T06:06:25;4.20;;;2.50;;
18290;SDS011;9271;48.590;8.866;2023-02-02T06:08:51;2.30;;;1.50;;
18290;SDS011;9271;48.590;8.866;2023-02-02T06:11:19;2.73;;;1.37;;
18290;SDS011;9271;48.590;8.866;2023-02-02T06:13:46;3.57;;;1.67;;
18290;SDS011;9271;48.590;8.866;2023-02-02T06:16:13;4.13;;;1.60;;
18290;SDS011;9271;48.590;8.866;2023-02-02T06:18:39;3.80;;;1.43;;
18290;SDS011;9271;48.590;8.866;2023-02-02T06:21:06;4.13;;;1.60;;
18290;SDS011;9271;48.590;8.866;2023-02-02T06:23:33;1.63;;;1.40;;
18290;SDS011;9271;48.590;8.866;2023-02-02T06:26:00;2.80;;;1.10;;
18290;SDS011;9271;48.590;8.866;2023-02-02T06:28:28;2.53;;;1.20;;
18290;SDS011;9271;48.590;8.866;2023-02-02T06:30:55;4.33;;;1.40;;
18290;SDS011;9271;48.590;8.866;2023-02-02T06:33:28;2.10;;;1.30;;
18290;SDS011;9271;48.590;8.866;2023-02-02T06:35:57;1.60;;;1.40;;
18290;SDS011;9271;48.590;8.866;2023-02-02T06:38:24;3.20;;;1.70;;
18290;SDS011;9271;48.590;8.866;2023-02-02T06:40:50;3.40;;;1.40;;
18290;SDS011;9271;48.590;8.866;2023-02-02T06:43:17;3.33;;;1.70;;
18290;SDS011;9271;48.590;8.866;2023-02-02T06:45:45;6.07;;;2.07;;
18290;SDS011;9271;48.590;8.866;2023-02-02T06:48:12;3.03;;;1.90;;
18290;SDS011;9271;48.590;8.866;2023-02-02T06:50:38;3.07;;;1.60;;
18290;SDS011;9271;48.590;8.866;2023-02-02T06:53:05;3.90;;;1.63;;
18290;SDS011;9271;48.590;8.866;2023-02-02T06:55:32;4.40;;;1.70;;
18290;SDS011;9271;48.590;8.866;2023-02-02T06:57:59;3.80;;;1.60;;
18290;SDS011;9271;48.590;8.866;2023-02-02T07:00:27;5.00;;;3.03;;
18290;SDS011;9271;48.590;8.866;2023-02-02T07:02:56;3.97;;;2.10;;
18290;SDS011;9271;48.590;8.866;2023-02-02T07:05:23;4.67;;;1.77;;
18290;SDS011;9271;48.590;8.866;2023-02-02T07:07:49;5.87;;;1.67;;
18290;SDS011;9271;48.590;8.866;2023-02-02T07:10:16;3.53;;;1.63;;
18290;SDS011;9271;48.590;8.866;2023-02-02T07:12:44;6.07;;;1.80;;
18290;SDS011;9271;48.590;8.866;2023-02-02T07:15:11;3.87;;;1.80;;
18290;SDS011;9271;48.590;8.866;2023-02-02T07:17:38;2.37;;;1.57;;
18290;SDS011;9271;48.590;8.866;2023-02-02T07:20:06;4.10;;;1.43;;
18290;SDS011;9271;48.590;8.866;2023-02-02T07:22:33;2.40;;;1.53;;
18290;SDS011;9271;48.590;8.866;2023-02-02T07:25:03;2.93;;;1.50;;
18290;SDS011;9271;48.590;8.866;2023-02-02T07:27:30;3.73;;;1.37;;
18290;SDS011;9271;48.590;8.866;2023-02-02T07:29:56;5.00;;;1.60;;
18290;SDS011;9271;48.590;8.866;2023-02-02T07:32:23;5.07;;;1.40;;
18290;SDS011;9271;48.590;8.866;2023-02-02T07:34:50;3.13;;;1.30;;
18290;SDS011;9271;48.590;8.866;2023-02-02T07:37:18;1.87;;;1.60;;
18290;SDS011;9271;48.590;8.866;2023-02-02T07:39:44;4.03;;;1.63;;
18290;SDS011;9271;48.590;8.866;2023-02-02T07:42:11;5.20;;;1.57;;
18290;SDS011;9271;48.590;8.866;2023-02-02T07:44:38;1.67;;;1.40;;
18290;SDS011;9271;48.590;8.866;2023-02-02T07:47:04;5.07;;;1.50;;
18290;SDS011;9271;48.590;8.866;2023-02-02T07:49:31;3.93;;;1.43;;
18290;SDS011;9271;48.590;8.866;2023-02-02T07:51:58;3.30;;;1.77;;
18290;SDS011;9271;48.590;8.866;2023-02-02T07:54:26;2.80;;;1.43;;
18290;SDS011;9271;48.590;8.866;2023-02-02T07:56:52;4.53;;;1.50;;
18290;SDS011;9271;48.590;8.866;2023-02-02T07:59:19;3.47;;;1.90;;
18290;SDS011;9271;48.590;8.866;2023-02-02T08:01:46;2.90;;;1.33;;
18290;SDS011;9271;48.590;8.866;2023-02-02T08:04:12;4.80;;;1.90;;
18290;SDS011;9271;48.590;8.866;2023-02-02T08:06:39;8.43;;;1.83;;
18290;SDS011;9271;48.590;8.866;2023-02-02T08:09:06;3.33;;;1.40;;
18290;SDS011;9271;48.590;8.866;2023-02-02T08:11:35;9.43;;;2.00;;
18290;SDS011;9271;48.590;8.866;2023-02-02T08:14:03;4.93;;;1.93;;
18290;SDS011;9271;48.590;8.866;2023-02-02T08:16:31;5.03;;;1.63;;
18290;SDS011;9271;48.590;8.866;2023-02-02T08:18:58;5.47;;;1.57;;
18290;SDS011;9271;48.590;8.866;2023-02-02T08:21:25;5.90;;;1.57;;
18290;SDS011;9271;48.590;8.866;2023-02-02T08:23:52;3.07;;;1.70;;
18290;SDS011;9271;48.590;8.866;2023-02-02T08:26:20;3.33;;;1.70;;
18290;SDS011;9271;48.590;8.866;2023-02-02T08:28:50;2.87;;;1.47;;
18290;SDS011;9271;48.590;8.866;2023-02-02T08:31:19;3.50;;;1.70;;
18290;SDS011;9271;48.590;8.866;2023-02-02T08:33:47;4.13;;;2.30;;
18290;SDS011;9271;48.590;8.866;2023-02-02T08:36:14;2.40;;;2.20;;
18290;SDS011;9271;48.590;8.866;2023-02-02T08:38:42;4.47;;;2.90;;
18290;SDS011;9271;48.590;8.866;2023-02-02T08:41:10;2.20;;;1.60;;
18290;SDS011;9271;48.590;8.866;2023-02-02T08:43:38;4.70;;;1.70;;
18290;SDS011;9271;48.590;8.866;2023-02-02T08:46:07;2.97;;;1.60;;
18290;SDS011;9271;48.590;8.866;2023-02-02T08:48:35;5.13;;;1.70;;
18290;SDS011;9271;48.590;8.866;2023-02-02T08:51:03;3.40;;;1.40;;
18290;SDS011;9271;48.590;8.866;2023-02-02T08:53:30;2.77;;;1.50;;
18290;SDS011;9271;48.590;8.866;2023-02-02T08:55:58;3.77;;;1.70;;
18290;SDS011;9271;48.590;8.866;2023-02-02T08:58:26;4.17;;;1.70;;
18290;SDS011;9271;48.590;8.866;2023-02-02T09:00:53;3.70;;;1.70;;
18290;SDS011;9271;48.590;8.866;2023-02-02T09:03:21;3.97;;;1.70;;
18290;SDS011;9271;48.590;8.866;2023-02-02T09:05:48;3.70;;;1.80;;
18290;SDS011;9271;48.590;8.866;2023-02-02T09:08:14;3.57;;;1.90;;
18290;SDS011;9271;48.590;8.866;2023-02-02T09:10:41;2.67;;;1.50;;
18290;SDS011;9271;48.590;8.866;2023-02-02T09:13:07;5.13;;;2.37;;
18290;SDS011;9271;48.590;8.866;2023-02-02T09:15:34;3.57;;;2.10;;
18290;SDS011;9271;48.590;8.866;2023-02-02T09:18:01;6.20;;;2.60;;
18290;SDS011;9271;48.590;8.866;2023-02-02T09:20:29;3.90;;;1.83;;
18290;SDS011;9271;48.590;8.866;2023-02-02T09:22:55;3.30;;;2.03;;
18290;SDS011;9271;48.590;8.866;2023-02-02T09:25:22;4.30;;;1.70;;
18290;SDS011;9271;48.590;8.866;2023-02-02T09:27:51;5.53;;;2.27;;
18290;SDS011;9271;48.590;8.866;2023-02-02T09:30:18;5.67;;;1.70;;
18290;SDS011;9271;48.590;8.866;2023-02-02T09:32:47;4.13;;;2.27;;
18290;SDS011;9271;48.590;8.866;2023-02-02T09:35:14;9.57;;;2.67;;
18290;SDS011;9271;48.590;8.866;2023-02-02T09:37:43;5.60;;;1.97;;
18290;SDS011;9271;48.590;8.866;2023-02-02T09:40:12;5.27;;;1.87;;
18290;SDS011;9271;48.590;8.866;2023-02-02T09:42:46;5.13;;;1.87;;
18290;SDS011;9271;48.590;8.866;2023-02-02T09:45:25;2.63;;;1.53;;
18290;SDS011;9271;48.590;8.866;2023-02-02T09:48:05;5.73;;;2.03;;
18290;SDS011;9271;48.590;8.866;2023-02-02T09:50:40;5.17;;;1.90;;
18290;SDS011;9271;48.590;8.866;2023-02-02T09:53:14;4.30;;;1.87;;
18290;SDS011;9271;48.590;8.866;2023-02-02T09:55:47;3.40;;;1.60;;
18290;SDS011;9271;48.590;8.866;2023-02-02T09:58:15;1.77;;;1.40;;
18290;SDS011;9271;48.590;8.866;2023-02-02T10:00:46;4.97;;;1.70;;
18290;SDS011;9271;48.590;8.866;2023-02-02T10:03:20;1.90;;;1.60;;
18290;SDS011;9271;48.590;8.866;2023-02-02T10:05:54;4.47;;;1.90;;
18290;SDS011;9271;48.590;8.866;2023-02-02T10:08:31;3.07;;;1.53;;
18290;SDS011;9271;48.590;8.866;2023-02-02T10:11:01;3.80;;;1.80;;
18290;SDS011;9271;48.590;8.866;2023-02-02T10:13:45;2.70;;;1.43;;
18290;SDS011;9271;48.590;8.866;2023-02-02T10:16:14;2.77;;;1.50;;
18290;SDS011;9271;48.590;8.866;2023-02-02T10:18:44;2.60;;;1.40;;
18290;SDS011;9271;48.590;8.866;2023-02-02T10:21:17;2.57;;;1.20;;
18290;SDS011;9271;48.590;8.866;2023-02-02T10:23:53;1.97;;;1.20;;
18290;SDS011;9271;48.590;8.866;2023-02-02T10:26:22;1.50;;;1.10;;
18290;SDS011;9271;48.590;8.866;2023-02-02T10:29:00;3.80;;;1.37;;
18290;SDS011;9271;48.590;8.866;2023-02-02T10:31:39;2.43;;;1.50;;
18290;SDS011;9271;48.590;8.866;2023-02-02T10:34:12;1.00;;;1.00;;
18290;SDS011;9271;48.590;8.866;2023-02-02T10:36:46;3.37;;;1.70;;
18290;SDS011;9271;48.590;8.866;2023-02-02T10:39:24;1.30;;;1.10;;
18290;SDS011;9271;48.590;8.866;2023-02-02T10:42:02;5.23;;;1.40;;
18290;SDS011;9271;48.590;8.866;2023-02-02T10:44:39;2.57;;;1.27;;
18290;SDS011;9271;48.590;8.866;2023-02-02T10:47:14;2.60;;;1.50;;
18290;SDS011;9271;48.590;8.866;2023-02-02T10:49:50;3.77;;;1.30;;
18290;SDS011;9271;48.590;8.866;2023-02-02T10:52:27;1.47;;;1.10;;
18290;SDS011;9271;48.590;8.866;2023-02-02T10:54:58;2.20;;;1.67;;
18290;SDS011;9271;48.590;8.866;2023-02-02T11:00:32;1.30;;;1.20;;
18290;SDS011;9271;48.590;8.866;2023-02-02T11:03:03;1.37;;;1.10;;
18290;SDS011;9271;48.590;8.866;2023-02-02T11:05:31;1.47;;;1.20;;
18290;SDS011;9271;48.590;8.866;2023-02-02T11:08:16;4.40;;;1.30;;
18290;SDS011;9271;48.590;8.866;2023-02-02T11:10:46;1.30;;;1.20;;
18290;SDS011;9271;48.590;8.866;2023-02-02T11:13:20;2.50;;;1.30;;
18290;SDS011;9271;48.590;8.866;2023-02-02T11:18:48;2.53;;;1.40;;
18290;SDS011;9271;48.590;8.866;2023-02-02T11:23:49;1.90;;;1.20;;
18290;SDS011;9271;48.590;8.866;2023-02-02T11:26:19;1.77;;;1.10;;
18290;SDS011;9271;48.590;8.866;2023-02-02T11:28:47;2.20;;;1.50;;
18290;SDS011;9271;48.590;8.866;2023-02-02T11:31:28;2.50;;;1.47;;
18290;SDS011;9271;48.590;8.866;2023-02-02T11:34:06;2.07;;;1.30;;
18290;SDS011;9271;48.590;8.866;2023-02-02T11:36:35;3.37;;;1.33;;
18290;SDS011;9271;48.590;8.866;2023-02-02T11:39:14;2.53;;;1.17;;
18290;SDS011;9271;48.590;8.866;2023-02-02T11:41:46;2.27;;;1.50;;
18290;SDS011;9271;48.590;8.866;2023-02-02T11:44:16;2.87;;;1.47;;
18290;SDS011;9271;48.590;8.866;2023-02-02T11:46:50;1.40;;;1.20;;
18290;SDS011;9271;48.590;8.866;2023-02-02T11:49:17;1.50;;;1.30;;
18290;SDS011;9271;48.590;8.866;2023-02-02T11:51:54;2.33;;;1.50;;
18290;SDS011;9271;48.590;8.866;2023-02-02T11:54:26;1.97;;;1.50;;
18290;SDS011;9271;48.590;8.866;2023-02-02T11:56:58;1.90;;;1.40;;
18290;SDS011;9271;48.590;8.866;2023-02-02T11:59:31;2.17;;;1.47;;
18290;SDS011;9271;48.590;8.866;2023-02-02T12:04:50;3.97;;;1.73;;
18290;SDS011;9271;48.590;8.866;2023-02-02T12:07:21;2.70;;;1.70;;
18290;SDS011;9271;48.590;8.866;2023-02-02T12:09:51;2.97;;;1.53;;
18290;SDS011;9271;48.590;8.866;2023-02-02T12:12:25;3.00;;;1.47;;
18290;SDS011;9271;48.590;8.866;2023-02-02T12:15:01;3.03;;;1.50;;
18290;SDS011;9271;48.590;8.866;2023-02-02T12:17:33;2.63;;;1.50;;
18290;SDS011;9271;48.590;8.866;2023-02-02T12:20:08;3.00;;;1.83;;
18290;SDS011;9271;48.590;8.866;2023-02-02T12:22:48;4.03;;;1.80;;
18290;SDS011;9271;48.590;8.866;2023-02-02T12:25:30;2.10;;;1.50;;
18290;SDS011;9271;48.590;8.866;2023-02-02T12:28:08;1.83;;;1.20;;
18290;SDS011;9271;48.590;8.866;2023-02-02T12:30:43;3.87;;;1.90;;
18290;SDS011;9271;48.590;8.866;2023-02-02T12:33:21;1.97;;;1.30;;
18290;SDS011;9271;48.590;8.866;2023-02-02T12:38:52;3.43;;;1.57;;
18290;SDS011;9271;48.590;8.866;2023-02-02T12:41:37;3.90;;;1.70;;
18290;SDS011;9271;48.590;8.866;2023-02-02T12:44:20;4.53;;;1.47;;
18290;SDS011;9271;48.590;8.866;2023-02-02T12:46:55;2.90;;;1.50;;
18290;SDS011;9271;48.590;8.866;2023-02-02T12:49:44;1.50;;;1.20;;
18290;SDS011;9271;48.590;8.866;2023-02-02T12:52:32;1.40;;;1.20;;
18290;SDS011;9271;48.590;8.866;2023-02-02T12:55:13;4.20;;;1.37;;
18290;SDS011;9271;48.590;8.866;2023-02-02T12:57:49;3.47;;;1.30;;
18290;SDS011;9271;48.590;8.866;2023-02-02T13:00:36;1.40;;;1.30;;
18290;SDS011;9271;48.590;8.866;2023-02-02T13:03:20;3.07;;;1.30;;
18290;SDS011;9271;48.590;8.866;2023-02-02T13:05:58;1.53;;;1.30;;
18290;SDS011;9271;48.590;8.866;2023-02-02T13:08:50;2.30;;;1.20;;
18290;SDS011;9271;48.590;8.866;2023-02-02T13:11:21;2.10;;;1.23;;
18290;SDS011;9271;48.590;8.866;2023-02-02T13:13:58;3.73;;;1.50;;
18290;SDS011;9271;48.590;8.866;2023-02-02T13:16:29;1.67;;;1.23;;
18290;SDS011;9271;48.590;8.866;2023-02-02T13:18:58;2.87;;;1.30;;
18290;SDS011;9271;48.590;8.866;2023-02-02T13:21:29;2.43;;;1.27;;
18290;SDS011;9271;48.590;8.866;2023-02-02T13:23:58;1.40;;;1.30;;
18290;SDS011;9271;48.590;8.866;2023-02-02T13:26:28;2.40;;;1.40;;
18290;SDS011;9271;48.590;8.866;2023-02-02T13:29:02;1.57;;;1.30;;
18290;SDS011;9271;48.590;8.866;2023-02-02T13:31:36;2.73;;;1.10;;
18290;SDS011;9271;48.590;8.866;2023-02-02T13:34:11;3.63;;;1.37;;
18290;SDS011;9271;48.590;8.866;2023-02-02T13:36:42;2.03;;;1.30;;
18290;SDS011;9271;48.590;8.866;2023-02-02T13:39:14;5.07;;;1.50;;
18290;SDS011;9271;48.590;8.866;2023-02-02T13:41:45;2.37;;;1.30;;
18290;SDS011;9271;48.590;8.866;2023-02-02T13:44:13;3.17;;;1.50;;
18290;SDS011;9271;48.590;8.866;2023-02-02T13:46:49;5.43;;;1.50;;
18290;SDS011;9271;48.590;8.866;2023-02-02T13:49:22;2.07;;;1.37;;
18290;SDS011;9271;48.590;8.866;2023-02-02T13:54:59;4.60;;;1.43;;
18290;SDS011;9271;48.590;8.866;2023-02-02T14:00:46;2.67;;;1.30;;
18290;SDS011;9271;48.590;8.866;2023-02-02T14:03:24;3.27;;;1.33;;
18290;SDS011;9271;48.590;8.866;2023-02-02T14:06:01;5.57;;;1.60;;
18290;SDS011;9271;48.590;8.866;2023-02-02T14:08:33;2.63;;;1.33;;
18290;SDS011;9271;48.590;8.866;2023-02-02T14:11:02;2.80;;;1.57;;
18290;SDS011;9271;48.590;8.866;2023-02-02T14:13:33;2.50;;;1.67;;
18290;SDS011;9271;48.590;8.866;2023-02-02T14:19:13;3.93;;;1.63;;
18290;SDS011;9271;48.590;8.866;2023-02-02T14:21:58;4.87;;;1.73;;
18290;SDS011;9271;48.590;8.866;2023-02-02T14:24:36;5.10;;;1.40;;
18290;SDS011;9271;48.590;8.866;2023-02-02T14:30:17;3.17;;;1.47;;
18290;SDS011;9271;48.590;8.866;2023-02-02T14:32:46;2.87;;;1.60;;
18290;SDS011;9271;48.590;8.866;2023-02-02T14:38:22;3.13;;;1.60;;
18290;SDS011;9271;48.590;8.866;2023-02-02T14:41:07;3.13;;;1.63;;
18290;SDS011;9271;48.590;8.866;2023-02-02T14:44:02;3.10;;;1.60;;
18290;SDS011;9271;48.590;8.866;2023-02-02T14:46:33;3.53;;;1.70;;
18290;SDS011;9271;48.590;8.866;2023-02-02T14:49:06;3.00;;;1.30;;
18290;SDS011;9271;48.590;8.866;2023-02-02T14:51:48;5.00;;;1.97;;
18290;SDS011;9271;48.590;8.866;2023-02-02T14:54:20;5.37;;;2.37;;
18290;SDS011;9271;48.590;8.866;2023-02-02T14:56:51;4.17;;;2.20;;
18290;SDS011;9271;48.590;8.866;2023-02-02T14:59:22;3.67;;;2.27;;
18290;SDS011;9271;48.590;8.866;2023-02-02T15:01:53;3.13;;;1.77;;
18290;SDS011;9271;48.590;8.866;2023-02-02T15:04:26;6.07;;;2.80;;
18290;SDS011;9271;48.590;8.866;2023-02-02T15:06:54;3.00;;;1.80;;
18290;SDS011;9271;48.590;8.866;2023-02-02T15:09:32;6.73;;;2.47;;
18290;SDS011;9271;48.590;8.866;2023-02-02T15:12:14;3.97;;;1.80;;
18290;SDS011;9271;48.590;8.866;2023-02-02T15:14:43;4.43;;;2.17;;
18290;SDS011;9271;48.590;8.866;2023-02-02T15:17:18;3.40;;;1.70;;
18290;SDS011;9271;48.590;8.866;2023-02-02T15:19:49;5.33;;;1.73;;
18290;SDS011;9271;48.590;8.866;2023-02-02T15:22:25;5.70;;;1.87;;
18290;SDS011;9271;48.590;8.866;2023-02-02T15:24:57;5.57;;;1.90;;
18290;SDS011;9271;48.590;8.866;2023-02-02T15:27:28;5.00;;;1.60;;
18290;SDS011;9271;48.590;8.866;2023-02-02T15:29:57;4.37;;;1.70;;
18290;SDS011;9271;48.590;8.866;2023-02-02T15:32:29;5.50;;;3.30;;
18290;SDS011;9271;48.590;8.866;2023-02-02T15:34:58;6.10;;;2.10;;
18290;SDS011;9271;48.590;8.866;2023-02-02T15:37:29;3.57;;;1.87;;
18290;SDS011;9271;48.590;8.866;2023-02-02T15:40:04;4.43;;;2.37;;
18290;SDS011;9271;48.590;8.866;2023-02-02T15:42:39;4.27;;;2.00;;
18290;SDS011;9271;48.590;8.866;2023-02-02T15:45:29;8.03;;;2.03;;
18290;SDS011;9271;48.590;8.866;2023-02-02T15:47:59;4.27;;;2.13;;
18290;SDS011;9271;48.590;8.866;2023-02-02T15:50:30;3.23;;;2.03;;
18290;SDS011;9271;48.590;8.866;2023-02-02T15:52:59;4.17;;;2.60;;
18290;SDS011;9271;48.590;8.866;2023-02-02T15:55:28;5.30;;;2.47;;
18290;SDS011;9271;48.590;8.866;2023-02-02T15:57:57;3.70;;;1.77;;